Time;durP1;ratioP1;P1;durP2;ratioP2;P2;SDS_P1;SDS_P2;PMS_P1;PMS_P2;Temp;Humidity;BMP_temperature;BMP_pressure;BME280_temperature;BME280_humidity;BME280_pressure;Samples;Min_cycle;Max_cycle;Signal;HPM_P1;HPM_P2
2023/09/28 00:00:38;;;;;;;5.20;4.70;;;;;;;;;;5069500;28;20487;-62
2023/09/28 00:03:04;;;;;;;24.38;6.10;;;;;;;;;;5071055;28;20023;-62
2023/09/28 00:05:29;;;;;;;9.70;5.95;;;;;;;;;;5069430;28;20085;-62
2023/09/28 00:07:55;;;;;;;4.47;4.05;;;;;;;;;;5070789;28;20012;-62
2023/09/28 00:10:20;;;;;;;9.05;4.70;;;;;;;;;;5069130;28;20067;-63
2023/09/28 00:12:46;;;;;;;7.17;4.10;;;;;;;;;;5070452;28;20105;-64
2023/09/28 00:15:12;;;;;;;4.90;4.40;;;;;;;;;;5069364;28;20564;-74
2023/09/28 00:17:38;;;;;;;5.38;4.85;;;;;;;;;;5070512;28;20092;-62
2023/09/28 00:20:06;;;;;;;5.03;4.63;;;;;;;;;;5069473;28;20035;-62
2023/09/28 00:22:32;;;;;;;6.57;4.50;;;;;;;;;;5070430;28;20021;-62
2023/09/28 00:24:58;;;;;;;5.60;4.70;;;;;;;;;;5068189;28;20020;-61
2023/09/28 00:27:24;;;;;;;6.05;5.25;;;;;;;;;;5070771;28;20024;-62
2023/09/28 00:29:50;;;;;;;7.90;4.88;;;;;;;;;;5070128;28;20027;-61
2023/09/28 00:32:15;;;;;;;5.78;4.72;;;;;;;;;;5068744;28;20043;-60
2023/09/28 00:34:40;;;;;;;7.07;4.97;;;;;;;;;;5070212;28;20044;-60
2023/09/28 00:37:07;;;;;;;7.97;4.67;;;;;;;;;;5068774;28;20537;-60
2023/09/28 00:39:32;;;;;;;5.03;4.20;;;;;;;;;;5070184;28;20454;-61
2023/09/28 00:41:57;;;;;;;9.17;5.27;;;;;;;;;;5068469;28;20043;-60
2023/09/28 00:44:22;;;;;;;8.20;5.77;;;;;;;;;;5070208;28;20488;-60
2023/09/28 00:46:48;;;;;;;5.13;4.63;;;;;;;;;;5068692;28;20492;-71
2023/09/28 00:49:16;;;;;;;7.25;5.03;;;;;;;;;;5070225;28;20433;-60
2023/09/28 00:51:42;;;;;;;6.25;4.45;;;;;;;;;;5068360;28;20106;-60
2023/09/28 00:54:11;;;;;;;6.70;5.70;;;;;;;;;;5070404;28;20857;-72
2023/09/28 00:56:36;;;;;;;9.55;4.22;;;;;;;;;;5068266;28;20044;-60
2023/09/28 00:59:01;;;;;;;8.23;6.18;;;;;;;;;;5069921;28;20016;-60
2023/09/28 01:01:27;;;;;;;5.30;4.80;;;;;;;;;;5068707;28;20098;-60
2023/09/28 01:03:54;;;;;;;10.45;4.57;;;;;;;;;;5054395;28;20070;-60
2023/09/28 01:06:19;;;;;;;6.57;3.55;;;;;;;;;;5060191;28;20032;-60
2023/09/28 01:08:45;;;;;;;6.70;4.90;;;;;;;;;;5069749;28;20472;-60
2023/09/28 01:11:10;;;;;;;9.00;5.07;;;;;;;;;;5068736;28;21038;-60
2023/09/28 01:13:37;;;;;;;9.80;5.25;;;;;;;;;;5069871;28;20107;-60
2023/09/28 01:16:04;;;;;;;7.10;5.07;;;;;;;;;;5068558;28;20060;-60
2023/09/28 01:18:29;;;;;;;5.13;4.43;;;;;;;;;;5070398;28;20068;-60
2023/09/28 01:20:55;;;;;;;7.78;5.63;;;;;;;;;;5068092;28;20116;-61
2023/09/28 01:23:20;;;;;;;8.13;5.55;;;;;;;;;;5068612;28;20024;-61
2023/09/28 01:25:47;;;;;;;5.37;4.80;;;;;;;;;;5068159;28;20074;-61
2023/09/28 01:28:13;;;;;;;11.50;4.47;;;;;;;;;;5069916;28;20431;-60
2023/09/28 01:30:38;;;;;;;6.95;5.45;;;;;;;;;;5068546;28;20070;-61
2023/09/28 01:33:04;;;;;;;6.40;4.32;;;;;;;;;;5070172;28;20024;-62
2023/09/28 01:35:29;;;;;;;6.05;5.47;;;;;;;;;;5068585;28;20052;-61
2023/09/28 01:38:13;;;;;;;8.50;4.90;;;;;;;;;;5073372;28;20032;-61
2023/09/28 01:40:38;;;;;;;7.53;5.43;;;;;;;;;;5072233;28;20037;-61
2023/09/28 01:43:03;;;;;;;7.67;5.30;;;;;;;;;;5073350;28;20024;-60
2023/09/28 01:45:29;;;;;;;6.57;5.90;;;;;;;;;;5072094;28;20481;-61
2023/09/28 01:47:54;;;;;;;7.63;5.68;;;;;;;;;;5073340;28;20437;-61
2023/09/28 01:50:19;;;;;;;8.98;5.63;;;;;;;;;;5070339;28;20045;-61
2023/09/28 01:52:45;;;;;;;6.18;5.18;;;;;;;;;;5073230;28;20020;-61
2023/09/28 01:55:10;;;;;;;8.43;4.53;;;;;;;;;;5072132;28;20017;-61
2023/09/28 01:57:35;;;;;;;5.45;4.95;;;;;;;;;;5071458;28;20450;-61
2023/09/28 02:00:01;;;;;;;8.07;6.00;;;;;;;;;;5072202;28;20097;-69
2023/09/28 02:02:26;;;;;;;11.20;7.35;;;;;;;;;;5073239;28;20027;-60
2023/09/28 02:04:52;;;;;;;6.70;5.40;;;;;;;;;;5071314;28;20111;-60
2023/09/28 02:07:17;;;;;;;6.50;5.20;;;;;;;;;;5070518;28;20372;-60
2023/09/28 02:09:43;;;;;;;11.27;7.35;;;;;;;;;;5071645;28;20074;-61
2023/09/28 02:12:08;;;;;;;6.40;5.80;;;;;;;;;;5071255;28;20033;-61
2023/09/28 02:14:33;;;;;;;11.10;6.88;;;;;;;;;;5073247;28;20380;-61
2023/09/28 02:16:58;;;;;;;6.37;5.53;;;;;;;;;;5071339;28;20067;-61
2023/09/28 02:19:24;;;;;;;5.70;5.20;;;;;;;;;;5072991;28;20454;-61
2023/09/28 02:21:51;;;;;;;8.67;5.50;;;;;;;;;;5071177;28;20102;-61
2023/09/28 02:24:16;;;;;;;7.18;4.60;;;;;;;;;;5072935;28;20423;-61
2023/09/28 02:26:41;;;;;;;7.32;5.47;;;;;;;;;;5070845;28;20098;-61
2023/09/28 02:29:06;;;;;;;6.80;6.00;;;;;;;;;;5073059;28;20028;-61
2023/09/28 02:31:32;;;;;;;5.60;5.03;;;;;;;;;;5071297;28;20682;-61
2023/09/28 02:33:58;;;;;;;8.30;6.20;;;;;;;;;;5072294;28;20457;-61
2023/09/28 02:36:23;;;;;;;8.27;4.40;;;;;;;;;;5071190;28;20556;-61
2023/09/28 02:38:48;;;;;;;6.82;5.80;;;;;;;;;;5072611;28;20047;-61
2023/09/28 02:41:20;;;;;;;8.07;4.50;;;;;;;;;;5070843;28;20036;-61
2023/09/28 02:43:45;;;;;;;5.07;4.43;;;;;;;;;;5072446;28;20438;-61
2023/09/28 02:46:11;;;;;;;5.45;4.78;;;;;;;;;;5071315;28;20028;-60
2023/09/28 02:48:37;;;;;;;8.68;4.95;;;;;;;;;;5070915;28;20031;-64
2023/09/28 02:51:03;;;;;;;6.55;5.05;;;;;;;;;;5070997;28;20040;-70
2023/09/28 02:53:29;;;;;;;7.75;5.97;;;;;;;;;;5072575;28;20029;-61
2023/09/28 02:55:55;;;;;;;7.85;5.03;;;;;;;;;;5070445;28;20033;-61
2023/09/28 02:58:22;;;;;;;6.70;5.10;;;;;;;;;;5072385;28;20027;-60
2023/09/28 03:00:47;;;;;;;8.52;5.43;;;;;;;;;;5070315;28;20041;-60
2023/09/28 03:03:12;;;;;;;5.05;4.60;;;;;;;;;;5071859;28;20525;-60
2023/09/28 03:05:39;;;;;;;6.45;5.82;;;;;;;;;;5070676;28;20036;-60
2023/09/28 03:08:09;;;;;;;10.43;4.80;;;;;;;;;;5072505;28;20553;-62
2023/09/28 03:10:34;;;;;;;5.55;4.68;;;;;;;;;;5070263;28;20119;-60
2023/09/28 03:13:00;;;;;;;6.25;3.75;;;;;;;;;;5071836;28;20104;-60
2023/09/28 03:15:25;;;;;;;5.17;4.67;;;;;;;;;;5070687;28;20042;-60
2023/09/28 03:17:50;;;;;;;5.75;4.15;;;;;;;;;;5071444;28;20513;-60
2023/09/28 03:20:17;;;;;;;5.50;4.93;;;;;;;;;;5070443;28;20029;-60
2023/09/28 03:22:43;;;;;;;5.57;4.30;;;;;;;;;;5071804;28;20432;-60
2023/09/28 03:25:11;;;;;;;7.10;5.50;;;;;;;;;;5069781;28;20016;-60
2023/09/28 03:27:37;;;;;;;4.97;4.47;;;;;;;;;;5071535;28;20436;-60
2023/09/28 03:30:05;;;;;;;6.25;4.80;;;;;;;;;;5070634;28;20047;-61
2023/09/28 03:32:30;;;;;;;8.13;4.93;;;;;;;;;;5071760;28;20063;-60
2023/09/28 03:34:55;;;;;;;7.82;4.65;;;;;;;;;;5070846;28;20726;-61
2023/09/28 03:37:20;;;;;;;5.10;4.50;;;;;;;;;;5069953;28;20522;-61
2023/09/28 03:39:46;;;;;;;5.87;5.07;;;;;;;;;;5071429;28;20074;-61
2023/09/28 03:42:12;;;;;;;11.95;4.95;;;;;;;;;;5069478;28;20470;-61
2023/09/28 03:44:37;;;;;;;7.15;5.28;;;;;;;;;;5071539;28;20044;-70
2023/09/28 03:47:02;;;;;;;10.83;6.53;;;;;;;;;;5070031;28;20115;-61
2023/09/28 03:49:27;;;;;;;6.50;3.95;;;;;;;;;;5071039;28;20427;-61
2023/09/28 03:51:53;;;;;;;5.33;4.83;;;;;;;;;;5069236;28;20040;-61
2023/09/28 03:54:18;;;;;;;7.07;5.63;;;;;;;;;;5069952;28;20426;-61
2023/09/28 03:56:43;;;;;;;6.60;5.45;;;;;;;;;;5069040;28;20458;-61
2023/09/28 03:59:08;;;;;;;5.95;5.45;;;;;;;;;;5071081;28;20088;-61
2023/09/28 04:01:34;;;;;;;7.65;4.45;;;;;;;;;;5069527;28;20047;-60
2023/09/28 04:03:59;;;;;;;6.65;5.03;;;;;;;;;;5070413;28;20468;-61
2023/09/28 04:06:24;;;;;;;9.43;5.00;;;;;;;;;;5069398;28;20044;-62
2023/09/28 04:08:50;;;;;;;11.53;4.77;;;;;;;;;;5071074;28;20427;-60
2023/09/28 04:11:15;;;;;;;9.32;6.03;;;;;;;;;;5069097;28;20469;-61
2023/09/28 04:13:40;;;;;;;10.68;4.78;;;;;;;;;;5056469;28;20088;-59
2023/09/28 04:16:05;;;;;;;8.75;5.45;;;;;;;;;;5058575;28;20431;-59
2023/09/28 04:18:31;;;;;;;16.15;6.90;;;;;;;;;;5068769;28;20029;-59
2023/09/28 04:20:56;;;;;;;7.53;5.67;;;;;;;;;;5060178;28;20152;-59
2023/09/28 04:23:21;;;;;;;9.98;5.18;;;;;;;;;;5050533;28;20583;-60
2023/09/28 04:25:46;;;;;;;8.52;4.95;;;;;;;;;;5055889;28;20028;-59
2023/09/28 04:28:12;;;;;;;13.47;6.50;;;;;;;;;;5051736;28;20517;-59
2023/09/28 04:30:38;;;;;;;7.40;5.53;;;;;;;;;;5049116;28;21014;-60
2023/09/28 04:33:03;;;;;;;10.43;6.50;;;;;;;;;;5050160;28;20438;-59
2023/09/28 04:35:28;;;;;;;5.47;4.85;;;;;;;;;;5054025;28;20454;-58
2023/09/28 04:37:53;;;;;;;5.93;5.43;;;;;;;;;;5070434;28;20092;-58
2023/09/28 04:40:24;;;;;;;10.00;6.57;;;;;;;;;;5068723;28;20086;-57
2023/09/28 04:42:49;;;;;;;11.60;6.25;;;;;;;;;;5069407;28;20419;-58
2023/09/28 04:45:14;;;;;;;6.53;5.05;;;;;;;;;;5068477;28;20036;-58
2023/09/28 04:47:39;;;;;;;8.32;6.45;;;;;;;;;;5068971;28;20024;-58
2023/09/28 04:50:06;;;;;;;12.27;6.97;;;;;;;;;;5068259;28;20020;-61
2023/09/28 04:52:31;;;;;;;6.30;5.63;;;;;;;;;;5069874;28;20434;-58
2023/09/28 04:54:57;;;;;;;6.30;5.70;;;;;;;;;;5067502;28;20021;-58
2023/09/28 04:57:24;;;;;;;12.38;7.35;;;;;;;;;;5070106;28;20426;-58
2023/09/28 04:59:49;;;;;;;9.47;6.13;;;;;;;;;;5070501;28;20055;-58
2023/09/28 05:02:15;;;;;;;7.65;6.82;;;;;;;;;;5068585;28;20056;-58
2023/09/28 05:04:40;;;;;;;5.85;5.28;;;;;;;;;;5070264;28;20456;-58
2023/09/28 05:07:05;;;;;;;7.57;6.65;;;;;;;;;;5068991;28;20024;-58
2023/09/28 05:09:30;;;;;;;10.55;7.90;;;;;;;;;;5069984;28;20027;-58
2023/09/28 05:12:00;;;;;;;14.55;7.18;;;;;;;;;;5071615;28;20048;-58
2023/09/28 05:14:26;;;;;;;7.28;6.13;;;;;;;;;;5074583;28;20474;-58
2023/09/28 05:16:51;;;;;;;10.40;5.88;;;;;;;;;;5072142;28;20041;-57
2023/09/28 05:19:16;;;;;;;18.27;6.50;;;;;;;;;;5074542;28;20047;-57
2023/09/28 05:21:41;;;;;;;10.35;7.03;;;;;;;;;;5072352;28;20036;-69
2023/09/28 05:24:07;;;;;;;9.80;6.97;;;;;;;;;;5073920;28;20383;-58
2023/09/28 05:26:32;;;;;;;8.57;6.13;;;;;;;;;;5072713;28;20118;-58
2023/09/28 05:28:57;;;;;;;8.65;6.65;;;;;;;;;;5074215;28;20498;-58
2023/09/28 05:31:23;;;;;;;11.00;8.02;;;;;;;;;;5072366;28;20036;-58
2023/09/28 05:33:48;;;;;;;8.07;7.13;;;;;;;;;;5073833;28;20056;-57
2023/09/28 05:36:13;;;;;;;10.32;7.43;;;;;;;;;;5072212;28;20029;-58
2023/09/28 05:38:38;;;;;;;11.10;7.03;;;;;;;;;;5066828;28;20059;-58
2023/09/28 05:41:03;;;;;;;10.93;8.07;;;;;;;;;;5051885;28;20037;-58
2023/09/28 05:43:29;;;;;;;7.05;6.43;;;;;;;;;;5052796;28;20423;-58
2023/09/28 05:45:54;;;;;;;11.35;7.88;;;;;;;;;;5050549;28;20059;-58
2023/09/28 05:48:20;;;;;;;10.68;7.25;;;;;;;;;;5053795;28;20059;-58
2023/09/28 05:50:45;;;;;;;11.77;6.93;;;;;;;;;;5052265;28;20037;-58
2023/09/28 05:53:11;;;;;;;10.63;7.15;;;;;;;;;;5053935;28;20407;-58
2023/09/28 05:55:36;;;;;;;9.00;8.07;;;;;;;;;;5051585;28;20037;-58
2023/09/28 05:58:01;;;;;;;9.05;8.00;;;;;;;;;;5053409;28;20060;-66
2023/09/28 06:00:26;;;;;;;7.78;6.90;;;;;;;;;;5052017;28;20055;-58
2023/09/28 06:02:51;;;;;;;11.63;8.27;;;;;;;;;;5053039;28;20070;-58
2023/09/28 06:05:16;;;;;;;12.95;7.10;;;;;;;;;;5061933;28;20032;-58
2023/09/28 06:07:42;;;;;;;9.32;6.78;;;;;;;;;;5072652;28;20160;-57
2023/09/28 06:10:10;;;;;;;9.68;6.88;;;;;;;;;;5071320;28;20017;-58
2023/09/28 06:12:35;;;;;;;12.70;7.50;;;;;;;;;;5072201;28;20066;-58
2023/09/28 06:15:01;;;;;;;10.48;7.30;;;;;;;;;;5066350;28;20028;-58
2023/09/28 06:17:26;;;;;;;11.63;7.78;;;;;;;;;;5071372;28;20388;-58
2023/09/28 06:19:51;;;;;;;7.40;6.28;;;;;;;;;;5072883;28;20451;-58
2023/09/28 06:22:17;;;;;;;10.77;7.33;;;;;;;;;;5050139;28;20037;-58
2023/09/28 06:24:42;;;;;;;9.40;7.65;;;;;;;;;;5052795;28;20423;-58
2023/09/28 06:27:08;;;;;;;12.65;8.38;;;;;;;;;;5051633;28;20033;-58
2023/09/28 06:29:33;;;;;;;9.83;7.57;;;;;;;;;;5053160;28;20020;-58
2023/09/28 06:31:59;;;;;;;7.73;6.50;;;;;;;;;;5050859;28;20558;-60
2023/09/28 06:34:24;;;;;;;11.40;9.27;;;;;;;;;;5052828;28;20479;-68
2023/09/28 06:36:49;;;;;;;12.60;6.93;;;;;;;;;;5051116;28;20037;-58
2023/09/28 06:39:15;;;;;;;8.93;7.88;;;;;;;;;;5052819;28;20053;-58
2023/09/28 06:41:40;;;;;;;10.90;8.13;;;;;;;;;;5050960;28;20098;-58
2023/09/28 06:44:05;;;;;;;14.40;7.90;;;;;;;;;;5052795;28;20471;-58
2023/09/28 06:46:30;;;;;;;14.05;7.93;;;;;;;;;;5066425;28;20040;-58
2023/09/28 06:48:56;;;;;;;15.60;9.52;;;;;;;;;;5056318;28;20020;-58
2023/09/28 06:51:22;;;;;;;13.77;8.23;;;;;;;;;;5071055;28;20037;-58
2023/09/28 06:53:47;;;;;;;10.10;7.68;;;;;;;;;;5071866;28;20035;-58
2023/09/28 06:56:12;;;;;;;10.95;8.27;;;;;;;;;;5071076;28;20511;-58
2023/09/28 06:58:37;;;;;;;9.57;7.78;;;;;;;;;;5072406;28;20113;-58
2023/09/28 07:01:03;;;;;;;16.52;9.18;;;;;;;;;;5070724;28;20040;-58
2023/09/28 07:03:28;;;;;;;9.93;8.40;;;;;;;;;;5072214;28;20467;-58
2023/09/28 07:05:53;;;;;;;9.65;6.68;;;;;;;;;;5070568;28;20033;-58
2023/09/28 07:08:18;;;;;;;11.98;7.40;;;;;;;;;;5072207;28;20008;-62
2023/09/28 07:10:44;;;;;;;8.53;7.70;;;;;;;;;;5070328;28;20043;-58
2023/09/28 07:13:10;;;;;;;16.65;7.80;;;;;;;;;;5072234;28;20048;-58
2023/09/28 07:15:40;;;;;;;11.52;6.97;;;;;;;;;;5070304;28;20052;-58
2023/09/28 07:18:05;;;;;;;7.70;6.93;;;;;;;;;;5072307;28;20029;-59
2023/09/28 07:20:30;;;;;;;8.70;6.47;;;;;;;;;;5070752;28;20033;-58
2023/09/28 07:22:56;;;;;;;6.65;5.47;;;;;;;;;;5071391;28;20099;-58
2023/09/28 07:25:21;;;;;;;12.57;7.40;;;;;;;;;;5070284;28;20102;-59
2023/09/28 07:27:49;;;;;;;12.25;7.03;;;;;;;;;;5071620;28;20422;-58
2023/09/28 07:30:15;;;;;;;11.37;7.70;;;;;;;;;;5070227;28;20070;-58
2023/09/28 07:32:40;;;;;;;12.63;6.22;;;;;;;;;;5071639;28;20083;-58
2023/09/28 07:35:09;;;;;;;11.77;7.33;;;;;;;;;;5069803;28;20438;-58
2023/09/28 07:37:34;;;;;;;13.52;8.52;;;;;;;;;;5071205;28;20526;-58
2023/09/28 07:39:59;;;;;;;9.18;5.13;;;;;;;;;;5069841;28;20032;-64
2023/09/28 07:42:26;;;;;;;12.30;8.05;;;;;;;;;;5071236;28;20058;-58
2023/09/28 07:44:51;;;;;;;7.97;6.33;;;;;;;;;;5070977;28;20016;-58
2023/09/28 07:47:18;;;;;;;8.73;4.87;;;;;;;;;;5069813;28;20446;-58
2023/09/28 07:49:44;;;;;;;34.75;7.07;;;;;;;;;;5071472;28;20020;-63
2023/09/28 07:52:09;;;;;;;13.20;4.97;;;;;;;;;;5067285;28;20507;-58
2023/09/28 07:54:35;;;;;;;15.20;7.45;;;;;;;;;;5067453;28;20020;-58
2023/09/28 07:57:01;;;;;;;14.32;5.53;;;;;;;;;;5067992;28;20036;-58
2023/09/28 07:59:26;;;;;;;13.43;6.10;;;;;;;;;;5069434;28;20029;-58
2023/09/28 08:01:51;;;;;;;20.58;5.32;;;;;;;;;;5068913;28;20033;-58
2023/09/28 08:04:16;;;;;;;19.08;7.22;;;;;;;;;;5071138;28;20025;-58
2023/09/28 08:06:42;;;;;;;26.60;7.60;;;;;;;;;;5069193;28;20040;-58
2023/09/28 08:09:13;;;;;;;14.98;6.70;;;;;;;;;;5071369;28;20043;-58
2023/09/28 08:11:38;;;;;;;12.77;5.20;;;;;;;;;;5069434;28;20528;-58
2023/09/28 08:14:05;;;;;;;12.77;5.88;;;;;;;;;;5070623;28;20085;-65
2023/09/28 08:16:30;;;;;;;14.25;5.90;;;;;;;;;;5069315;28;20049;-58
2023/09/28 08:18:55;;;;;;;14.45;5.55;;;;;;;;;;5070753;28;20054;-59
2023/09/28 08:21:24;;;;;;;18.75;5.57;;;;;;;;;;5068697;28;20028;-58
2023/09/28 08:23:49;;;;;;;23.20;6.82;;;;;;;;;;5070374;28;20483;-58
2023/09/28 08:26:15;;;;;;;9.30;4.17;;;;;;;;;;5069487;28;20123;-59
2023/09/28 08:28:40;;;;;;;16.58;5.28;;;;;;;;;;5070545;28;20043;-58
2023/09/28 08:31:06;;;;;;;18.13;5.85;;;;;;;;;;5069147;28;20036;-58
2023/09/28 08:33:31;;;;;;;18.90;4.68;;;;;;;;;;5070731;28;20515;-58
2023/09/28 08:35:57;;;;;;;22.65;7.68;;;;;;;;;;5069089;28;20044;-58
2023/09/28 08:38:22;;;;;;;27.60;6.72;;;;;;;;;;5070268;28;20024;-59
2023/09/28 08:40:48;;;;;;;20.33;5.20;;;;;;;;;;5061352;28;20037;-58
2023/09/28 08:43:16;;;;;;;20.95;6.18;;;;;;;;;;5050649;28;20039;-59
2023/09/28 08:45:41;;;;;;;;;;;;;;;;;;5054939;28;20036;-58
2023/09/28 08:48:09;;;;;;;21.77;5.35;;;;;;;;;;5070686;28;19904;-59
2023/09/28 08:50:38;;;;;;;17.92;7.20;;;;;;;;;;5063648;28;20390;-59
2023/09/28 08:53:04;;;;;;;19.75;5.80;;;;;;;;;;5050122;28;20164;-58
2023/09/28 08:55:31;;;;;;;19.02;7.65;;;;;;;;;;5054000;28;20048;-58
2023/09/28 08:57:56;;;;;;;17.90;6.40;;;;;;;;;;5070158;28;20414;-58
2023/09/28 09:00:24;;;;;;;18.02;4.78;;;;;;;;;;5064879;28;20079;-59
2023/09/28 09:02:51;;;;;;;14.13;4.90;;;;;;;;;;5050433;28;20013;-58
2023/09/28 09:05:16;;;;;;;18.30;5.05;;;;;;;;;;5051975;28;20037;-69
2023/09/28 09:07:44;;;;;;;17.57;6.17;;;;;;;;;;5069728;28;20070;-58
2023/09/28 09:10:13;;;;;;;16.90;6.57;;;;;;;;;;5066918;28;20048;-59
2023/09/28 09:12:39;;;;;;;21.60;7.43;;;;;;;;;;5050229;28;20029;-58
2023/09/28 09:15:04;;;;;;;20.08;5.00;;;;;;;;;;5049785;28;20020;-58
2023/09/28 09:17:33;;;;;;;24.58;7.13;;;;;;;;;;5070279;28;20033;-58
2023/09/28 09:19:59;;;;;;;21.38;6.30;;;;;;;;;;5067728;28;20025;-58
2023/09/28 09:22:28;;;;;;;40.05;6.85;;;;;;;;;;5049660;28;20021;-58
2023/09/28 09:24:57;;;;;;;17.52;5.80;;;;;;;;;;5050220;28;20028;-58
2023/09/28 09:27:29;;;;;;;19.95;6.35;;;;;;;;;;5063577;28;20271;-58
2023/09/28 09:30:02;;;;;;;19.10;5.18;;;;;;;;;;5068016;28;20124;-58
2023/09/28 09:32:27;;;;;;;24.85;6.20;;;;;;;;;;5048767;28;20021;-58
2023/09/28 09:34:53;;;;;;;21.23;4.55;;;;;;;;;;5049847;28;20638;-58
2023/09/28 09:37:19;;;;;;;22.95;5.90;;;;;;;;;;5067834;28;20047;-58
2023/09/28 09:39:45;;;;;;;18.55;4.40;;;;;;;;;;5069878;28;20032;-58
2023/09/28 09:42:10;;;;;;;19.83;6.22;;;;;;;;;;5047834;28;20037;-58
2023/09/28 09:44:35;;;;;;;37.30;8.60;;;;;;;;;;5049560;28;20356;-58
2023/09/28 09:47:00;;;;;;;19.47;5.23;;;;;;;;;;5064991;28;20033;-58
2023/09/28 09:49:26;;;;;;;29.40;6.13;;;;;;;;;;5050076;28;20032;-60
2023/09/28 09:51:51;;;;;;;31.02;6.93;;;;;;;;;;5047586;28;20441;-58
2023/09/28 09:54:17;;;;;;;26.33;5.82;;;;;;;;;;5049599;28;20053;-58
2023/09/28 09:56:46;;;;;;;22.42;6.18;;;;;;;;;;5048995;28;20134;-58
2023/09/28 09:59:13;;;;;;;19.85;6.93;;;;;;;;;;5053594;28;20096;-58
2023/09/28 10:01:40;;;;;;;23.85;6.47;;;;;;;;;;5051442;28;20048;-58
2023/09/28 10:04:12;;;;;;;23.52;6.32;;;;;;;;;;5053655;28;20028;-58
2023/09/28 10:06:38;;;;;;;21.45;5.15;;;;;;;;;;5058193;28;20106;-58
2023/09/28 10:09:04;;;;;;;24.65;5.28;;;;;;;;;;5073182;28;20021;-58
2023/09/28 10:11:30;;;;;;;18.77;5.90;;;;;;;;;;5071811;28;20040;-58
2023/09/28 10:13:57;;;;;;;25.55;7.03;;;;;;;;;;5072802;28;20023;-58
2023/09/28 10:16:22;;;;;;;22.97;6.57;;;;;;;;;;5071454;28;20120;-58
2023/09/28 10:18:49;;;;;;;33.42;8.50;;;;;;;;;;5072862;28;20147;-58
2023/09/28 10:21:15;;;;;;;18.38;7.13;;;;;;;;;;5063257;28;20042;-58
2023/09/28 10:23:40;;;;;;;24.92;6.95;;;;;;;;;;5053006;28;20015;-58
2023/09/28 10:26:11;;;;;;;19.25;6.88;;;;;;;;;;5070081;28;20110;-58
2023/09/28 10:28:56;;;;;;;19.95;7.10;;;;;;;;;;5062946;28;20025;-58
2023/09/28 10:31:21;;;;;;;22.55;6.35;;;;;;;;;;5071206;28;20043;-58
2023/09/28 10:33:59;;;;;;;15.50;5.80;;;;;;;;;;5069149;28;20052;-58
2023/09/28 10:36:28;;;;;;;28.63;5.53;;;;;;;;;;5070840;28;20055;-59
2023/09/28 10:39:17;;;;;;;19.50;5.75;;;;;;;;;;5072460;28;20103;-58
2023/09/28 10:41:43;;;;;;;20.27;5.45;;;;;;;;;;5071103;28;20093;-58
2023/09/28 10:44:12;;;;;;;12.70;6.78;;;;;;;;;;5072317;28;20476;-59
2023/09/28 10:46:41;;;;;;;26.45;7.20;;;;;;;;;;5071124;28;20406;-58
2023/09/28 10:49:06;;;;;;;20.33;6.00;;;;;;;;;;5072543;28;20500;-61
2023/09/28 10:51:31;;;;;;;24.13;7.03;;;;;;;;;;5070923;28;20040;-58
2023/09/28 10:53:56;;;;;;;21.63;6.00;;;;;;;;;;5072332;28;20016;-57
2023/09/28 10:56:21;;;;;;;15.80;5.40;;;;;;;;;;5071174;28;20498;-57
2023/09/28 10:58:47;;;;;;;22.00;6.93;;;;;;;;;;5071860;28;20816;-71
2023/09/28 11:01:12;;;;;;;23.90;5.33;;;;;;;;;;5070753;28;20462;-57
2023/09/28 11:03:38;;;;;;;16.60;4.63;;;;;;;;;;5072167;28;20449;-57
2023/09/28 11:06:04;;;;;;;23.60;5.25;;;;;;;;;;5070396;28;20487;-58
2023/09/28 11:08:32;;;;;;;14.48;5.05;;;;;;;;;;5071509;28;20020;-57
2023/09/28 11:11:01;;;;;;;16.20;5.60;;;;;;;;;;5070146;28;20041;-58
2023/09/28 11:13:26;;;;;;;18.75;5.20;;;;;;;;;;5071868;28;20009;-57
2023/09/28 11:15:53;;;;;;;22.15;7.65;;;;;;;;;;5070531;28;20043;-57
2023/09/28 11:18:18;;;;;;;20.40;6.60;;;;;;;;;;5071906;28;20383;-57
2023/09/28 11:20:44;;;;;;;12.87;4.73;;;;;;;;;;5069858;28;20040;-57
2023/09/28 11:23:10;;;;;;;31.90;6.32;;;;;;;;;;5072058;28;20031;-57
2023/09/28 11:25:38;;;;;;;19.88;7.68;;;;;;;;;;5070494;28;20024;-57
2023/09/28 11:28:03;;;;;;;15.70;5.60;;;;;;;;;;5071357;28;20424;-61
2023/09/28 11:30:28;;;;;;;21.98;4.07;;;;;;;;;;5070293;28;20036;-57
2023/09/28 11:32:53;;;;;;;21.27;6.97;;;;;;;;;;5071520;28;20012;-58
2023/09/28 11:35:24;;;;;;;20.30;4.95;;;;;;;;;;5069370;28;20446;-57
2023/09/28 11:37:51;;;;;;;20.50;5.35;;;;;;;;;;5071361;28;20096;-57
2023/09/28 11:40:16;;;;;;;12.52;5.10;;;;;;;;;;5070051;28;20036;-57
2023/09/28 11:42:43;;;;;;;17.25;5.18;;;;;;;;;;5071027;28;20025;-58
2023/09/28 11:45:10;;;;;;;13.40;4.53;;;;;;;;;;5062752;28;20052;-58
2023/09/28 11:47:36;;;;;;;21.25;5.00;;;;;;;;;;5054347;28;20013;-57
2023/09/28 11:50:03;;;;;;;20.35;6.43;;;;;;;;;;5049759;28;20423;-58
2023/09/28 11:52:28;;;;;;;11.40;4.40;;;;;;;;;;5067720;28;20044;-57
2023/09/28 11:54:53;;;;;;;21.25;6.30;;;;;;;;;;5070958;28;20056;-57
2023/09/28 11:57:18;;;;;;;25.90;6.03;;;;;;;;;;5069277;28;20036;-58
2023/09/28 11:59:43;;;;;;;17.75;6.45;;;;;;;;;;5071122;28;20021;-57
2023/09/28 12:02:09;;;;;;;25.43;5.73;;;;;;;;;;5069468;28;20063;-57
2023/09/28 12:04:35;;;;;;;16.08;5.80;;;;;;;;;;5070846;28;20475;-57
2023/09/28 12:07:03;;;;;;;12.23;4.95;;;;;;;;;;5069385;28;20112;-57
2023/09/28 12:09:30;;;;;;;24.85;7.00;;;;;;;;;;5071158;28;20032;-58
2023/09/28 12:11:56;;;;;;;25.50;5.37;;;;;;;;;;5052285;28;20066;-57
2023/09/28 12:14:21;;;;;;;15.90;5.53;;;;;;;;;;5051246;28;20479;-57
2023/09/28 12:16:46;;;;;;;26.30;6.63;;;;;;;;;;5049017;28;20042;-57
2023/09/28 12:19:11;;;;;;;20.20;5.17;;;;;;;;;;5050363;28;20025;-58
2023/09/28 12:21:36;;;;;;;20.42;6.97;;;;;;;;;;5063135;28;20119;-57
2023/09/28 12:24:02;;;;;;;13.55;5.18;;;;;;;;;;5070994;28;20094;-58
2023/09/28 12:26:27;;;;;;;18.73;5.60;;;;;;;;;;5068915;28;20392;-58
2023/09/28 12:28:52;;;;;;;22.63;6.50;;;;;;;;;;5070495;28;20074;-57
2023/09/28 12:31:17;;;;;;;21.70;6.83;;;;;;;;;;5069072;28;20439;-58
2023/09/28 12:33:43;;;;;;;16.17;4.67;;;;;;;;;;5069989;28;20538;-57
2023/09/28 12:36:09;;;;;;;24.73;6.28;;;;;;;;;;5067978;28;20512;-58
2023/09/28 12:38:34;;;;;;;17.98;5.90;;;;;;;;;;5070726;28;20066;-57
2023/09/28 12:40:59;;;;;;;23.67;7.37;;;;;;;;;;5068509;28;20039;-57
2023/09/28 12:43:26;;;;;;;19.73;7.20;;;;;;;;;;5070815;28;20020;-59
2023/09/28 12:45:51;;;;;;;25.42;6.75;;;;;;;;;;5068864;28;20062;-58
2023/09/28 12:48:18;;;;;;;13.13;4.47;;;;;;;;;;5069935;28;20013;-58
2023/09/28 12:50:46;;;;;;;12.48;4.72;;;;;;;;;;5068997;28;20052;-58
2023/09/28 12:53:11;;;;;;;;;;;;;;;;;;5070847;28;20024;-57
2023/09/28 12:55:37;;;;;;;19.88;5.20;;;;;;;;;;5068675;28;19908;-57
2023/09/28 12:58:03;;;;;;;17.20;5.35;;;;;;;;;;5070387;28;20028;-58
2023/09/28 13:00:29;;;;;;;16.77;3.92;;;;;;;;;;5069061;28;20033;-57
2023/09/28 13:02:54;;;;;;;19.13;4.85;;;;;;;;;;5069653;28;20107;-58
2023/09/28 13:05:19;;;;;;;14.77;4.88;;;;;;;;;;5069260;28;20035;-57
2023/09/28 13:07:44;;;;;;;16.63;4.78;;;;;;;;;;5070230;28;20589;-57
2023/09/28 13:10:12;;;;;;;11.25;5.38;;;;;;;;;;5068437;28;20161;-58
2023/09/28 13:12:38;;;;;;;13.90;5.40;;;;;;;;;;5069987;28;20479;-57
2023/09/28 13:15:05;;;;;;;17.50;6.38;;;;;;;;;;5068606;28;20020;-57
2023/09/28 13:17:32;;;;;;;26.08;6.18;;;;;;;;;;5069717;28;20096;-57
2023/09/28 13:19:58;;;;;;;15.15;4.78;;;;;;;;;;5068563;28;20020;-58
2023/09/28 13:22:23;;;;;;;20.77;4.40;;;;;;;;;;5070382;28;20059;-69
2023/09/28 13:24:49;;;;;;;20.67;4.95;;;;;;;;;;5069640;28;20017;-57
2023/09/28 13:27:16;;;;;;;19.38;4.85;;;;;;;;;;5068414;28;20393;-57
2023/09/28 13:29:41;;;;;;;12.35;4.32;;;;;;;;;;5069891;28;20020;-57
2023/09/28 13:32:11;;;;;;;25.02;5.20;;;;;;;;;;5070010;28;20041;-57
2023/09/28 13:34:37;;;;;;;18.83;5.95;;;;;;;;;;5073574;28;20051;-57
2023/09/28 13:37:04;;;;;;;25.08;5.15;;;;;;;;;;5072316;28;20060;-58
2023/09/28 13:39:30;;;;;;;13.77;4.13;;;;;;;;;;5073720;28;20504;-58
2023/09/28 13:42:04;;;;;;;17.00;4.55;;;;;;;;;;5071758;28;20037;-58
2023/09/28 13:44:30;;;;;;;14.88;4.03;;;;;;;;;;5074033;28;20417;-58
2023/09/28 13:46:55;;;;;;;14.88;4.05;;;;;;;;;;5070303;28;20028;-58
2023/09/28 13:49:23;;;;;;;26.67;6.07;;;;;;;;;;5074139;28;20023;-58
2023/09/28 13:51:49;;;;;;;;;;;;;;;;;;5072550;28;20037;-58
2023/09/28 13:54:15;;;;;;;11.52;4.65;;;;;;;;;;5073406;28;19915;-58
2023/09/28 13:56:40;;;;;;;21.85;5.25;;;;;;;;;;5071314;28;20064;-65
2023/09/28 13:59:09;;;;;;;39.05;9.43;;;;;;;;;;5072657;28;20092;-62
2023/09/28 14:01:36;;;;;;;15.23;4.35;;;;;;;;;;5072006;28;20119;-58
2023/09/28 14:04:01;;;;;;;13.65;4.55;;;;;;;;;;5073005;28;20475;-62
2023/09/28 14:06:26;;;;;;;21.58;6.93;;;;;;;;;;5071815;28;20127;-58
2023/09/28 14:08:56;;;;;;;13.20;4.82;;;;;;;;;;5073085;28;20344;-58
2023/09/28 14:11:22;;;;;;;15.13;4.57;;;;;;;;;;5071656;28;20037;-59
2023/09/28 14:13:48;;;;;;;26.83;6.65;;;;;;;;;;5073049;28;20557;-59
2023/09/28 14:16:13;;;;;;;18.50;5.75;;;;;;;;;;5071809;28;20044;-59
2023/09/28 14:18:39;;;;;;;19.23;6.50;;;;;;;;;;5072300;28;20383;-59
2023/09/28 14:21:04;;;;;;;20.85;4.80;;;;;;;;;;5071471;28;20457;-58
2023/09/28 14:23:30;;;;;;;19.23;6.05;;;;;;;;;;5073340;28;20047;-59
2023/09/28 14:25:56;;;;;;;18.45;5.70;;;;;;;;;;5071089;28;20059;-59
2023/09/28 14:28:21;;;;;;;12.68;4.72;;;;;;;;;;5073089;28;20031;-58